Current | Forecast
Updated: 12:30 AM CEST on May 28, 2018
Observed at Barcelona, Spain
Temperature 20°C
Humidity 78%
Dew Point 16°C
Wind ENE at 20 km/h
Pressure 1013 hPa (Steady)
Conditions Mostly Cloudy
Visibility 10.0 kilometers
UV 0 out of 16
Clouds (FEW) : 762 m
Mostly Cloudy (BKN) : 1524 m
Yesterday's Maximum 23°C
Yesterday's Minimum 19°C approx.
Yesterday's Cooling Degree Days 5 approx.
Sunrise6:22 AM CEST
Sunset9:15 PM CEST
Moon Rise8:08 PM CEST
Moon Set5:58 AM CEST
Moon PhaseMoon Phase
Waxing Gibbous
Raw METARMETAR LEBL 272230Z 07011KT 9999 FEW025 BKN050 20/16 Q1013 NOSIG


Monday
. High: 77° F.
Tuesday
. High: 71° F.
Wednesday
. High: 75° F.
Thursday
. High: 69° F.
Friday
. High: 68° F.
Saturday
. High: 73° F.
Sunday
. High: 75° F.
Monday
. High: 75° F.

Click here for Marine Information
Scientific forecaster discussion (NWS)

Units: English | Metric

Find the Weather for any City, State or Zipcode, or Country:

U.S. State List | Severe Weather | Tropical Storms | Ski Conditions
United States | Canada | Central America | South America | Asia | Europe | Australia | Africa | Islands

Weather Underground

© Copyright 2018
The Weather Company, LLC